Brookhaven Weather

Current Time: 15:03 Zulu

HWV METARs

Local Time Temperature Dew Point Wind Direction Wind Speed Wind Gust Sky Vis.
3/20/2019 2:56:00 PM 7.2° c -0.6° c 190° 8 kt - CLR 10.0 sm
3/20/2019 1:56:00 PM 6.7° c 0.6° c 200° 9 kt - CLR 10.0 sm
3/20/2019 12:56:00 PM 3.3° c 1.1° c variable 0 kt - CLR 9.0 sm
3/20/2019 11:56:00 AM -2.8° c -3.9° c variable 0 kt - CLR 8.0 sm

ISP TAF:

KISP 201330Z 2014/2112 21007KT P6SM FEW250 
FM201800 18010KT P6SM SCT200 
FM202300 16007KT P6SM SCT150 
FM210200 VRB04KT P6SM BKN100 
FM211000 12007KT P6SM BKN050 OVC100
Weather data provided by aviationweather.gov. Pilots must verify weather before flying.